sensor_id;sensor_type;location;lat;lon;timestamp;P1;durP1;ratioP1;P2;durP2;ratioP2
28587;SDS011;15787;49.662;10.162;2023-05-07T00:01:04;6.90;;;3.15;;
28587;SDS011;15787;49.662;10.162;2023-05-07T00:03:38;5.50;;;3.05;;
28587;SDS011;15787;49.662;10.162;2023-05-07T00:06:11;5.10;;;3.35;;
28587;SDS011;15787;49.662;10.162;2023-05-07T00:08:44;5.65;;;3.22;;
28587;SDS011;15787;49.662;10.162;2023-05-07T00:11:18;7.70;;;3.22;;
28587;SDS011;15787;49.662;10.162;2023-05-07T00:13:51;4.95;;;3.00;;
28587;SDS011;15787;49.662;10.162;2023-05-07T00:16:24;8.18;;;2.83;;
28587;SDS011;15787;49.662;10.162;2023-05-07T00:18:57;8.80;;;3.42;;
28587;SDS011;15787;49.662;10.162;2023-05-07T00:21:30;8.32;;;3.00;;
28587;SDS011;15787;49.662;10.162;2023-05-07T00:24:07;4.38;;;2.95;;
28587;SDS011;15787;49.662;10.162;2023-05-07T00:26:41;4.40;;;3.15;;
28587;SDS011;15787;49.662;10.162;2023-05-07T00:29:14;4.45;;;2.88;;
28587;SDS011;15787;49.662;10.162;2023-05-07T00:31:48;4.28;;;2.75;;
28587;SDS011;15787;49.662;10.162;2023-05-07T00:34:22;3.70;;;2.70;;
28587;SDS011;15787;49.662;10.162;2023-05-07T00:36:54;4.80;;;2.95;;
28587;SDS011;15787;49.662;10.162;2023-05-07T00:39:28;6.97;;;2.42;;
28587;SDS011;15787;49.662;10.162;2023-05-07T00:42:02;4.10;;;2.40;;
28587;SDS011;15787;49.662;10.162;2023-05-07T00:44:35;3.75;;;2.83;;
28587;SDS011;15787;49.662;10.162;2023-05-07T00:47:08;4.63;;;2.42;;
28587;SDS011;15787;49.662;10.162;2023-05-07T00:49:42;4.45;;;2.60;;
28587;SDS011;15787;49.662;10.162;2023-05-07T00:52:16;5.05;;;3.03;;
28587;SDS011;15787;49.662;10.162;2023-05-07T00:54:50;3.92;;;2.65;;
28587;SDS011;15787;49.662;10.162;2023-05-07T00:57:24;4.75;;;2.92;;
28587;SDS011;15787;49.662;10.162;2023-05-07T00:59:57;3.20;;;2.45;;
28587;SDS011;15787;49.662;10.162;2023-05-07T01:02:30;3.88;;;2.85;;
28587;SDS011;15787;49.662;10.162;2023-05-07T01:05:04;5.82;;;2.80;;
28587;SDS011;15787;49.662;10.162;2023-05-07T01:07:41;4.32;;;2.30;;
28587;SDS011;15787;49.662;10.162;2023-05-07T01:10:15;6.32;;;2.80;;
28587;SDS011;15787;49.662;10.162;2023-05-07T01:12:50;5.57;;;2.70;;
28587;SDS011;15787;49.662;10.162;2023-05-07T01:15:24;5.55;;;2.75;;
28587;SDS011;15787;49.662;10.162;2023-05-07T01:17:58;4.68;;;3.05;;
28587;SDS011;15787;49.662;10.162;2023-05-07T01:20:36;8.68;;;2.90;;
28587;SDS011;15787;49.662;10.162;2023-05-07T01:23:11;3.97;;;2.90;;
28587;SDS011;15787;49.662;10.162;2023-05-07T01:25:50;5.53;;;2.90;;
28587;SDS011;15787;49.662;10.162;2023-05-07T01:28:25;5.07;;;3.10;;
28587;SDS011;15787;49.662;10.162;2023-05-07T01:31:02;4.45;;;3.08;;
28587;SDS011;15787;49.662;10.162;2023-05-07T01:33:38;4.95;;;2.92;;
28587;SDS011;15787;49.662;10.162;2023-05-07T01:36:14;4.80;;;2.88;;
28587;SDS011;15787;49.662;10.162;2023-05-07T01:38:50;12.23;;;2.90;;
28587;SDS011;15787;49.662;10.162;2023-05-07T01:41:23;4.13;;;2.60;;
28587;SDS011;15787;49.662;10.162;2023-05-07T01:43:56;5.40;;;3.17;;
28587;SDS011;15787;49.662;10.162;2023-05-07T01:46:31;3.90;;;3.03;;
28587;SDS011;15787;49.662;10.162;2023-05-07T01:49:05;5.45;;;3.10;;
28587;SDS011;15787;49.662;10.162;2023-05-07T01:51:38;7.05;;;2.97;;
28587;SDS011;15787;49.662;10.162;2023-05-07T01:54:13;7.55;;;2.88;;
28587;SDS011;15787;49.662;10.162;2023-05-07T01:56:46;5.18;;;3.28;;
28587;SDS011;15787;49.662;10.162;2023-05-07T01:59:20;4.65;;;2.78;;
28587;SDS011;15787;49.662;10.162;2023-05-07T02:01:53;4.10;;;2.30;;
28587;SDS011;15787;49.662;10.162;2023-05-07T02:04:26;3.83;;;2.80;;
28587;SDS011;15787;49.662;10.162;2023-05-07T02:06:59;4.63;;;2.90;;
28587;SDS011;15787;49.662;10.162;2023-05-07T02:09:35;6.55;;;3.40;;
28587;SDS011;15787;49.662;10.162;2023-05-07T02:12:08;7.10;;;4.50;;
28587;SDS011;15787;49.662;10.162;2023-05-07T02:14:41;5.22;;;3.08;;
28587;SDS011;15787;49.662;10.162;2023-05-07T02:17:15;5.03;;;2.92;;
28587;SDS011;15787;49.662;10.162;2023-05-07T02:19:48;4.95;;;2.85;;
28587;SDS011;15787;49.662;10.162;2023-05-07T02:22:21;4.47;;;3.10;;
28587;SDS011;15787;49.662;10.162;2023-05-07T02:24:55;5.43;;;2.92;;
28587;SDS011;15787;49.662;10.162;2023-05-07T02:27:28;5.93;;;3.42;;
28587;SDS011;15787;49.662;10.162;2023-05-07T02:30:01;6.30;;;3.30;;
28587;SDS011;15787;49.662;10.162;2023-05-07T02:32:34;4.57;;;3.08;;
28587;SDS011;15787;49.662;10.162;2023-05-07T02:35:07;7.90;;;3.45;;
28587;SDS011;15787;49.662;10.162;2023-05-07T02:37:41;4.28;;;2.97;;
28587;SDS011;15787;49.662;10.162;2023-05-07T02:40:15;4.40;;;2.55;;
28587;SDS011;15787;49.662;10.162;2023-05-07T02:42:48;5.50;;;3.22;;
28587;SDS011;15787;49.662;10.162;2023-05-07T02:45:21;4.03;;;2.78;;
28587;SDS011;15787;49.662;10.162;2023-05-07T02:47:56;4.47;;;2.60;;
28587;SDS011;15787;49.662;10.162;2023-05-07T02:50:29;10.27;;;3.17;;
28587;SDS011;15787;49.662;10.162;2023-05-07T02:53:03;5.32;;;3.17;;
28587;SDS011;15787;49.662;10.162;2023-05-07T02:55:38;4.25;;;3.03;;
28587;SDS011;15787;49.662;10.162;2023-05-07T02:58:10;6.97;;;3.42;;
28587;SDS011;15787;49.662;10.162;2023-05-07T03:00:45;4.28;;;3.10;;
28587;SDS011;15787;49.662;10.162;2023-05-07T03:03:32;7.10;;;3.10;;
28587;SDS011;15787;49.662;10.162;2023-05-07T03:06:05;6.75;;;3.13;;
28587;SDS011;15787;49.662;10.162;2023-05-07T03:08:39;6.32;;;3.60;;
28587;SDS011;15787;49.662;10.162;2023-05-07T03:11:13;6.05;;;3.63;;
28587;SDS011;15787;49.662;10.162;2023-05-07T03:13:46;4.00;;;2.92;;
28587;SDS011;15787;49.662;10.162;2023-05-07T03:16:22;4.07;;;2.53;;
28587;SDS011;15787;49.662;10.162;2023-05-07T03:18:56;4.82;;;2.72;;
28587;SDS011;15787;49.662;10.162;2023-05-07T03:21:29;4.95;;;3.30;;
28587;SDS011;15787;49.662;10.162;2023-05-07T03:24:05;6.18;;;3.03;;
28587;SDS011;15787;49.662;10.162;2023-05-07T03:26:39;4.25;;;2.88;;
28587;SDS011;15787;49.662;10.162;2023-05-07T03:29:12;8.40;;;3.50;;
28587;SDS011;15787;49.662;10.162;2023-05-07T03:31:52;6.88;;;3.80;;
28587;SDS011;15787;49.662;10.162;2023-05-07T03:34:25;6.93;;;3.42;;
28587;SDS011;15787;49.662;10.162;2023-05-07T03:36:58;5.40;;;3.50;;
28587;SDS011;15787;49.662;10.162;2023-05-07T03:39:31;4.90;;;3.53;;
28587;SDS011;15787;49.662;10.162;2023-05-07T03:42:06;4.55;;;3.25;;
28587;SDS011;15787;49.662;10.162;2023-05-07T03:44:39;5.00;;;3.53;;
28587;SDS011;15787;49.662;10.162;2023-05-07T03:47:13;8.82;;;3.65;;
28587;SDS011;15787;49.662;10.162;2023-05-07T03:49:46;4.95;;;3.45;;
28587;SDS011;15787;49.662;10.162;2023-05-07T03:52:20;5.28;;;3.58;;
28587;SDS011;15787;49.662;10.162;2023-05-07T03:55:00;4.25;;;3.25;;
28587;SDS011;15787;49.662;10.162;2023-05-07T03:57:37;5.57;;;3.50;;
28587;SDS011;15787;49.662;10.162;2023-05-07T04:00:12;4.72;;;3.13;;
28587;SDS011;15787;49.662;10.162;2023-05-07T04:05:30;6.00;;;4.15;;
28587;SDS011;15787;49.662;10.162;2023-05-07T04:08:06;5.85;;;3.92;;
28587;SDS011;15787;49.662;10.162;2023-05-07T04:10:43;6.18;;;3.83;;
28587;SDS011;15787;49.662;10.162;2023-05-07T04:13:19;5.30;;;3.83;;
28587;SDS011;15787;49.662;10.162;2023-05-07T04:15:52;6.85;;;4.22;;
28587;SDS011;15787;49.662;10.162;2023-05-07T04:18:25;7.00;;;4.25;;
28587;SDS011;15787;49.662;10.162;2023-05-07T04:20:58;5.65;;;4.07;;
28587;SDS011;15787;49.662;10.162;2023-05-07T04:23:31;5.72;;;4.20;;
28587;SDS011;15787;49.662;10.162;2023-05-07T04:26:07;5.88;;;4.13;;
28587;SDS011;15787;49.662;10.162;2023-05-07T04:28:45;5.93;;;4.15;;
28587;SDS011;15787;49.662;10.162;2023-05-07T04:31:19;5.40;;;3.80;;
28587;SDS011;15787;49.662;10.162;2023-05-07T04:33:56;5.82;;;3.53;;
28587;SDS011;15787;49.662;10.162;2023-05-07T04:36:30;5.20;;;3.30;;
28587;SDS011;15787;49.662;10.162;2023-05-07T04:39:08;6.78;;;4.15;;
28587;SDS011;15787;49.662;10.162;2023-05-07T04:41:44;6.63;;;3.90;;
28587;SDS011;15787;49.662;10.162;2023-05-07T04:44:18;4.45;;;3.33;;
28587;SDS011;15787;49.662;10.162;2023-05-07T04:46:52;6.78;;;3.65;;
28587;SDS011;15787;49.662;10.162;2023-05-07T04:49:26;5.43;;;3.72;;
28587;SDS011;15787;49.662;10.162;2023-05-07T04:52:00;6.78;;;3.55;;
28587;SDS011;15787;49.662;10.162;2023-05-07T04:54:33;6.35;;;4.32;;
28587;SDS011;15787;49.662;10.162;2023-05-07T04:57:06;5.35;;;3.50;;
28587;SDS011;15787;49.662;10.162;2023-05-07T04:59:41;4.70;;;4.13;;
28587;SDS011;15787;49.662;10.162;2023-05-07T05:02:14;5.78;;;3.80;;
28587;SDS011;15787;49.662;10.162;2023-05-07T05:04:50;9.38;;;3.60;;
28587;SDS011;15787;49.662;10.162;2023-05-07T05:07:24;4.57;;;3.40;;
28587;SDS011;15787;49.662;10.162;2023-05-07T05:09:57;8.18;;;3.70;;
28587;SDS011;15787;49.662;10.162;2023-05-07T05:12:30;4.72;;;3.38;;
28587;SDS011;15787;49.662;10.162;2023-05-07T05:15:07;4.68;;;3.40;;
28587;SDS011;15787;49.662;10.162;2023-05-07T05:17:42;8.52;;;3.95;;
28587;SDS011;15787;49.662;10.162;2023-05-07T05:20:16;6.82;;;4.10;;
28587;SDS011;15787;49.662;10.162;2023-05-07T05:22:49;4.57;;;3.30;;
28587;SDS011;15787;49.662;10.162;2023-05-07T05:25:23;6.38;;;3.67;;
28587;SDS011;15787;49.662;10.162;2023-05-07T05:27:56;5.72;;;4.40;;
28587;SDS011;15787;49.662;10.162;2023-05-07T05:30:30;4.75;;;3.85;;
28587;SDS011;15787;49.662;10.162;2023-05-07T05:33:03;5.68;;;4.22;;
28587;SDS011;15787;49.662;10.162;2023-05-07T05:35:37;5.03;;;4.20;;
28587;SDS011;15787;49.662;10.162;2023-05-07T05:38:14;6.10;;;3.80;;
28587;SDS011;15787;49.662;10.162;2023-05-07T05:40:48;5.35;;;4.15;;
28587;SDS011;15787;49.662;10.162;2023-05-07T05:43:21;6.97;;;4.22;;
28587;SDS011;15787;49.662;10.162;2023-05-07T05:45:56;6.90;;;4.00;;
28587;SDS011;15787;49.662;10.162;2023-05-07T05:48:30;6.32;;;4.38;;
28587;SDS011;15787;49.662;10.162;2023-05-07T05:51:05;6.07;;;4.40;;
28587;SDS011;15787;49.662;10.162;2023-05-07T05:53:38;5.65;;;4.45;;
28587;SDS011;15787;49.662;10.162;2023-05-07T05:56:11;6.07;;;4.15;;
28587;SDS011;15787;49.662;10.162;2023-05-07T05:58:45;5.70;;;4.75;;
28587;SDS011;15787;49.662;10.162;2023-05-07T06:01:20;7.07;;;4.38;;
28587;SDS011;15787;49.662;10.162;2023-05-07T06:03:55;6.35;;;4.80;;
28587;SDS011;15787;49.662;10.162;2023-05-07T06:06:28;6.63;;;4.80;;
28587;SDS011;15787;49.662;10.162;2023-05-07T06:09:03;5.90;;;4.80;;
28587;SDS011;15787;49.662;10.162;2023-05-07T06:11:42;7.70;;;4.75;;
28587;SDS011;15787;49.662;10.162;2023-05-07T06:14:17;6.72;;;5.07;;
28587;SDS011;15787;49.662;10.162;2023-05-07T06:16:51;9.27;;;4.97;;
28587;SDS011;15787;49.662;10.162;2023-05-07T06:19:25;8.65;;;5.53;;
28587;SDS011;15787;49.662;10.162;2023-05-07T06:22:01;6.45;;;5.00;;
28587;SDS011;15787;49.662;10.162;2023-05-07T06:24:36;7.78;;;5.70;;
28587;SDS011;15787;49.662;10.162;2023-05-07T06:27:10;8.73;;;6.07;;
28587;SDS011;15787;49.662;10.162;2023-05-07T06:29:44;7.25;;;5.47;;
28587;SDS011;15787;49.662;10.162;2023-05-07T06:32:20;6.65;;;5.80;;
28587;SDS011;15787;49.662;10.162;2023-05-07T06:34:55;7.28;;;5.65;;
28587;SDS011;15787;49.662;10.162;2023-05-07T06:37:28;9.05;;;6.43;;
28587;SDS011;15787;49.662;10.162;2023-05-07T06:40:06;9.52;;;5.78;;
28587;SDS011;15787;49.662;10.162;2023-05-07T06:42:42;7.13;;;5.20;;
28587;SDS011;15787;49.662;10.162;2023-05-07T06:45:34;9.38;;;6.30;;
28587;SDS011;15787;49.662;10.162;2023-05-07T06:48:10;8.80;;;6.40;;
28587;SDS011;15787;49.662;10.162;2023-05-07T06:50:53;8.85;;;5.72;;
28587;SDS011;15787;49.662;10.162;2023-05-07T06:53:29;8.07;;;6.28;;
28587;SDS011;15787;49.662;10.162;2023-05-07T06:56:04;9.43;;;5.70;;
28587;SDS011;15787;49.662;10.162;2023-05-07T06:58:38;9.07;;;5.85;;
28587;SDS011;15787;49.662;10.162;2023-05-07T07:01:12;8.65;;;6.28;;
28587;SDS011;15787;49.662;10.162;2023-05-07T07:03:48;9.70;;;6.50;;
28587;SDS011;15787;49.662;10.162;2023-05-07T07:06:24;8.23;;;6.38;;
28587;SDS011;15787;49.662;10.162;2023-05-07T07:08:58;9.77;;;6.35;;
28587;SDS011;15787;49.662;10.162;2023-05-07T07:11:31;9.52;;;6.68;;
28587;SDS011;15787;49.662;10.162;2023-05-07T07:14:04;8.63;;;6.30;;
28587;SDS011;15787;49.662;10.162;2023-05-07T07:16:43;10.20;;;6.72;;
28587;SDS011;15787;49.662;10.162;2023-05-07T07:19:20;8.27;;;5.80;;
28587;SDS011;15787;49.662;10.162;2023-05-07T07:21:56;12.32;;;6.57;;
28587;SDS011;15787;49.662;10.162;2023-05-07T07:24:32;7.50;;;6.28;;
28587;SDS011;15787;49.662;10.162;2023-05-07T07:27:09;8.98;;;6.35;;
28587;SDS011;15787;49.662;10.162;2023-05-07T07:29:43;10.63;;;6.32;;
28587;SDS011;15787;49.662;10.162;2023-05-07T07:32:16;9.68;;;6.38;;
28587;SDS011;15787;49.662;10.162;2023-05-07T07:34:51;7.57;;;5.25;;
28587;SDS011;15787;49.662;10.162;2023-05-07T07:37:24;10.13;;;6.68;;
28587;SDS011;15787;49.662;10.162;2023-05-07T07:39:58;8.55;;;6.32;;
28587;SDS011;15787;49.662;10.162;2023-05-07T07:42:32;8.13;;;6.03;;
28587;SDS011;15787;49.662;10.162;2023-05-07T07:45:06;7.97;;;6.78;;
28587;SDS011;15787;49.662;10.162;2023-05-07T07:47:44;9.30;;;6.30;;
28587;SDS011;15787;49.662;10.162;2023-05-07T07:50:19;8.95;;;6.50;;
28587;SDS011;15787;49.662;10.162;2023-05-07T07:53:12;9.13;;;6.07;;
28587;SDS011;15787;49.662;10.162;2023-05-07T07:55:46;8.45;;;6.43;;
28587;SDS011;15787;49.662;10.162;2023-05-07T07:58:22;8.48;;;6.10;;
28587;SDS011;15787;49.662;10.162;2023-05-07T08:00:57;7.68;;;6.22;;
28587;SDS011;15787;49.662;10.162;2023-05-07T08:03:30;9.10;;;6.10;;
28587;SDS011;15787;49.662;10.162;2023-05-07T08:06:07;7.13;;;6.30;;
28587;SDS011;15787;49.662;10.162;2023-05-07T08:08:40;8.30;;;6.30;;
28587;SDS011;15787;49.662;10.162;2023-05-07T08:11:14;7.80;;;6.53;;
28587;SDS011;15787;49.662;10.162;2023-05-07T08:13:59;10.85;;;6.20;;
28587;SDS011;15787;49.662;10.162;2023-05-07T08:16:36;8.32;;;5.97;;
28587;SDS011;15787;49.662;10.162;2023-05-07T08:19:15;7.63;;;5.45;;
28587;SDS011;15787;49.662;10.162;2023-05-07T08:21:50;10.00;;;6.60;;
28587;SDS011;15787;49.662;10.162;2023-05-07T08:24:24;8.85;;;6.25;;
28587;SDS011;15787;49.662;10.162;2023-05-07T08:26:57;8.57;;;5.85;;
28587;SDS011;15787;49.662;10.162;2023-05-07T08:29:30;8.70;;;6.50;;
28587;SDS011;15787;49.662;10.162;2023-05-07T08:32:04;8.57;;;6.53;;
28587;SDS011;15787;49.662;10.162;2023-05-07T08:34:37;9.68;;;5.97;;
28587;SDS011;15787;49.662;10.162;2023-05-07T08:37:12;7.93;;;6.45;;
28587;SDS011;15787;49.662;10.162;2023-05-07T08:39:45;8.48;;;6.07;;
28587;SDS011;15787;49.662;10.162;2023-05-07T08:42:24;7.68;;;6.07;;
28587;SDS011;15787;49.662;10.162;2023-05-07T08:44:57;9.13;;;5.80;;
28587;SDS011;15787;49.662;10.162;2023-05-07T08:47:34;7.63;;;6.13;;
28587;SDS011;15787;49.662;10.162;2023-05-07T08:50:13;8.32;;;5.55;;
28587;SDS011;15787;49.662;10.162;2023-05-07T08:52:48;7.65;;;5.72;;
28587;SDS011;15787;49.662;10.162;2023-05-07T08:55:22;7.72;;;5.47;;
28587;SDS011;15787;49.662;10.162;2023-05-07T08:57:56;13.18;;;5.97;;
28587;SDS011;15787;49.662;10.162;2023-05-07T09:00:29;8.02;;;5.65;;
28587;SDS011;15787;49.662;10.162;2023-05-07T09:03:04;8.70;;;5.07;;
28587;SDS011;15787;49.662;10.162;2023-05-07T09:05:37;7.80;;;5.40;;
28587;SDS011;15787;49.662;10.162;2023-05-07T09:08:14;6.22;;;4.97;;
28587;SDS011;15787;49.662;10.162;2023-05-07T09:10:50;8.85;;;5.78;;
28587;SDS011;15787;49.662;10.162;2023-05-07T09:13:26;6.20;;;4.93;;
28587;SDS011;15787;49.662;10.162;2023-05-07T09:16:09;15.13;;;5.95;;
28587;SDS011;15787;49.662;10.162;2023-05-07T09:18:45;5.95;;;4.60;;
28587;SDS011;15787;49.662;10.162;2023-05-07T09:21:20;7.40;;;5.32;;
28587;SDS011;15787;49.662;10.162;2023-05-07T09:23:57;7.00;;;4.68;;
28587;SDS011;15787;49.662;10.162;2023-05-07T09:26:39;6.47;;;5.13;;
28587;SDS011;15787;49.662;10.162;2023-05-07T09:29:12;6.90;;;4.53;;
28587;SDS011;15787;49.662;10.162;2023-05-07T09:31:45;7.80;;;5.22;;
28587;SDS011;15787;49.662;10.162;2023-05-07T09:34:20;6.28;;;5.13;;
28587;SDS011;15787;49.662;10.162;2023-05-07T09:36:54;6.55;;;4.80;;
28587;SDS011;15787;49.662;10.162;2023-05-07T09:39:39;6.05;;;4.93;;
28587;SDS011;15787;49.662;10.162;2023-05-07T09:42:13;6.00;;;4.53;;
28587;SDS011;15787;49.662;10.162;2023-05-07T09:44:47;8.23;;;4.90;;
28587;SDS011;15787;49.662;10.162;2023-05-07T09:47:24;5.85;;;3.78;;
28587;SDS011;15787;49.662;10.162;2023-05-07T09:49:58;5.82;;;4.15;;
28587;SDS011;15787;49.662;10.162;2023-05-07T09:52:34;6.40;;;4.38;;
28587;SDS011;15787;49.662;10.162;2023-05-07T09:55:10;7.60;;;4.72;;
28587;SDS011;15787;49.662;10.162;2023-05-07T09:57:45;5.38;;;3.90;;
28587;SDS011;15787;49.662;10.162;2023-05-07T10:00:19;5.82;;;4.30;;
28587;SDS011;15787;49.662;10.162;2023-05-07T10:02:53;7.80;;;4.88;;
28587;SDS011;15787;49.662;10.162;2023-05-07T10:05:40;4.32;;;3.80;;
28587;SDS011;15787;49.662;10.162;2023-05-07T10:08:17;6.60;;;3.90;;
28587;SDS011;15787;49.662;10.162;2023-05-07T10:10:55;5.68;;;3.85;;
28587;SDS011;15787;49.662;10.162;2023-05-07T10:13:30;5.85;;;4.05;;
28587;SDS011;15787;49.662;10.162;2023-05-07T10:16:04;5.40;;;3.97;;
28587;SDS011;15787;49.662;10.162;2023-05-07T10:18:43;7.32;;;3.72;;
28587;SDS011;15787;49.662;10.162;2023-05-07T10:21:22;7.32;;;4.15;;
28587;SDS011;15787;49.662;10.162;2023-05-07T10:24:03;5.03;;;3.78;;
28587;SDS011;15787;49.662;10.162;2023-05-07T10:26:42;5.20;;;3.93;;
28587;SDS011;15787;49.662;10.162;2023-05-07T10:29:18;5.90;;;3.30;;
28587;SDS011;15787;49.662;10.162;2023-05-07T10:32:06;4.80;;;3.90;;
28587;SDS011;15787;49.662;10.162;2023-05-07T10:34:53;4.85;;;3.80;;
28587;SDS011;15787;49.662;10.162;2023-05-07T10:37:30;4.30;;;3.38;;
28587;SDS011;15787;49.662;10.162;2023-05-07T10:40:03;5.88;;;3.20;;
28587;SDS011;15787;49.662;10.162;2023-05-07T10:42:40;3.85;;;3.13;;
28587;SDS011;15787;49.662;10.162;2023-05-07T10:45:27;5.20;;;3.22;;
28587;SDS011;15787;49.662;10.162;2023-05-07T10:48:06;4.07;;;2.95;;
28587;SDS011;15787;49.662;10.162;2023-05-07T10:50:48;5.30;;;3.25;;
28587;SDS011;15787;49.662;10.162;2023-05-07T10:53:24;5.60;;;3.45;;
28587;SDS011;15787;49.662;10.162;2023-05-07T10:56:24;6.10;;;3.35;;
28587;SDS011;15787;49.662;10.162;2023-05-07T11:02:21;4.80;;;3.78;;
28587;SDS011;15787;49.662;10.162;2023-05-07T11:08:00;5.15;;;3.05;;
28587;SDS011;15787;49.662;10.162;2023-05-07T11:10:47;5.18;;;3.35;;
28587;SDS011;15787;49.662;10.162;2023-05-07T11:13:46;7.80;;;3.33;;
28587;SDS011;15787;49.662;10.162;2023-05-07T11:16:48;4.13;;;2.83;;
28587;SDS011;15787;49.662;10.162;2023-05-07T11:22:36;5.38;;;3.00;;
28587;SDS011;15787;49.662;10.162;2023-05-07T11:25:19;3.90;;;3.17;;
28587;SDS011;15787;49.662;10.162;2023-05-07T11:28:13;5.55;;;3.38;;
28587;SDS011;15787;49.662;10.162;2023-05-07T11:30:57;5.57;;;2.90;;
28587;SDS011;15787;49.662;10.162;2023-05-07T11:33:31;4.72;;;2.85;;
28587;SDS011;15787;49.662;10.162;2023-05-07T11:36:07;4.38;;;3.00;;
28587;SDS011;15787;49.662;10.162;2023-05-07T11:38:46;3.80;;;2.72;;
28587;SDS011;15787;49.662;10.162;2023-05-07T11:41:19;4.07;;;2.60;;
28587;SDS011;15787;49.662;10.162;2023-05-07T11:43:53;4.45;;;2.53;;
28587;SDS011;15787;49.662;10.162;2023-05-07T11:46:28;7.15;;;3.25;;
28587;SDS011;15787;49.662;10.162;2023-05-07T11:49:02;6.07;;;2.92;;
28587;SDS011;15787;49.662;10.162;2023-05-07T11:51:36;5.03;;;2.70;;
28587;SDS011;15787;49.662;10.162;2023-05-07T11:54:09;3.85;;;2.65;;
28587;SDS011;15787;49.662;10.162;2023-05-07T11:56:43;4.57;;;2.63;;
28587;SDS011;15787;49.662;10.162;2023-05-07T11:59:17;4.85;;;2.30;;
28587;SDS011;15787;49.662;10.162;2023-05-07T12:01:50;3.92;;;2.67;;
28587;SDS011;15787;49.662;10.162;2023-05-07T12:04:25;3.25;;;2.63;;
28587;SDS011;15787;49.662;10.162;2023-05-07T12:06:58;3.28;;;2.20;;
28587;SDS011;15787;49.662;10.162;2023-05-07T12:09:32;5.25;;;3.05;;
28587;SDS011;15787;49.662;10.162;2023-05-07T12:12:05;4.20;;;2.60;;
28587;SDS011;15787;49.662;10.162;2023-05-07T12:14:38;3.78;;;2.28;;
28587;SDS011;15787;49.662;10.162;2023-05-07T12:17:12;3.38;;;2.40;;
28587;SDS011;15787;49.662;10.162;2023-05-07T12:19:48;3.50;;;2.28;;
28587;SDS011;15787;49.662;10.162;2023-05-07T12:22:22;3.03;;;2.35;;
28587;SDS011;15787;49.662;10.162;2023-05-07T12:24:56;7.30;;;2.40;;
28587;SDS011;15787;49.662;10.162;2023-05-07T12:27:31;2.35;;;2.15;;
28587;SDS011;15787;49.662;10.162;2023-05-07T12:30:04;3.03;;;2.08;;
28587;SDS011;15787;49.662;10.162;2023-05-07T12:32:37;5.50;;;2.22;;
28587;SDS011;15787;49.662;10.162;2023-05-07T12:35:11;3.10;;;2.35;;
28587;SDS011;15787;49.662;10.162;2023-05-07T12:37:44;3.08;;;2.03;;
28587;SDS011;15787;49.662;10.162;2023-05-07T12:40:35;3.72;;;2.28;;
28587;SDS011;15787;49.662;10.162;2023-05-07T12:45:48;5.75;;;2.00;;
28587;SDS011;15787;49.662;10.162;2023-05-07T12:48:22;2.40;;;1.88;;
28587;SDS011;15787;49.662;10.162;2023-05-07T12:51:00;3.00;;;1.63;;
28587;SDS011;15787;49.662;10.162;2023-05-07T12:53:34;2.65;;;1.92;;
28587;SDS011;15787;49.662;10.162;2023-05-07T12:56:15;3.60;;;2.00;;
28587;SDS011;15787;49.662;10.162;2023-05-07T12:58:48;2.97;;;1.65;;
28587;SDS011;15787;49.662;10.162;2023-05-07T13:01:21;5.57;;;1.75;;
28587;SDS011;15787;49.662;10.162;2023-05-07T13:03:55;2.55;;;1.40;;
28587;SDS011;15787;49.662;10.162;2023-05-07T13:06:30;2.78;;;1.30;;
28587;SDS011;15787;49.662;10.162;2023-05-07T13:09:03;2.25;;;1.50;;
28587;SDS011;15787;49.662;10.162;2023-05-07T13:11:37;4.45;;;1.88;;
28587;SDS011;15787;49.662;10.162;2023-05-07T13:14:10;2.30;;;1.67;;
28587;SDS011;15787;49.662;10.162;2023-05-07T13:16:42;3.42;;;1.70;;
28587;SDS011;15787;49.662;10.162;2023-05-07T13:19:15;3.38;;;2.00;;
28587;SDS011;15787;49.662;10.162;2023-05-07T13:21:50;5.43;;;1.90;;
28587;SDS011;15787;49.662;10.162;2023-05-07T13:24:22;2.75;;;2.10;;
28587;SDS011;15787;49.662;10.162;2023-05-07T13:26:55;3.90;;;1.85;;
28587;SDS011;15787;49.662;10.162;2023-05-07T13:29:28;4.13;;;1.48;;
28587;SDS011;15787;49.662;10.162;2023-05-07T13:32:01;2.47;;;1.50;;
28587;SDS011;15787;49.662;10.162;2023-05-07T13:34:34;2.28;;;1.38;;
28587;SDS011;15787;49.662;10.162;2023-05-07T13:37:09;2.13;;;1.60;;
28587;SDS011;15787;49.662;10.162;2023-05-07T13:39:43;1.83;;;1.60;;
28587;SDS011;15787;49.662;10.162;2023-05-07T13:42:16;2.15;;;1.55;;
28587;SDS011;15787;49.662;10.162;2023-05-07T13:44:49;2.78;;;1.70;;
28587;SDS011;15787;49.662;10.162;2023-05-07T13:47:22;4.03;;;1.80;;
28587;SDS011;15787;49.662;10.162;2023-05-07T13:49:55;3.35;;;1.90;;
28587;SDS011;15787;49.662;10.162;2023-05-07T13:52:29;4.00;;;1.65;;
28587;SDS011;15787;49.662;10.162;2023-05-07T13:55:02;2.50;;;1.40;;
28587;SDS011;15787;49.662;10.162;2023-05-07T13:57:35;4.18;;;1.63;;
28587;SDS011;15787;49.662;10.162;2023-05-07T14:00:09;2.53;;;1.40;;
28587;SDS011;15787;49.662;10.162;2023-05-07T14:02:46;2.53;;;1.50;;
28587;SDS011;15787;49.662;10.162;2023-05-07T14:05:19;3.97;;;1.52;;
28587;SDS011;15787;49.662;10.162;2023-05-07T14:07:53;1.95;;;1.20;;
28587;SDS011;15787;49.662;10.162;2023-05-07T14:10:26;1.95;;;1.48;;
28587;SDS011;15787;49.662;10.162;2023-05-07T14:12:59;3.97;;;1.60;;
28587;SDS011;15787;49.662;10.162;2023-05-07T14:15:32;2.72;;;1.60;;
28587;SDS011;15787;49.662;10.162;2023-05-07T14:18:05;1.65;;;1.30;;
28587;SDS011;15787;49.662;10.162;2023-05-07T14:20:38;2.85;;;1.60;;
28587;SDS011;15787;49.662;10.162;2023-05-07T14:23:13;2.00;;;1.50;;
28587;SDS011;15787;49.662;10.162;2023-05-07T14:25:45;2.40;;;1.20;;
28587;SDS011;15787;49.662;10.162;2023-05-07T14:28:18;1.85;;;1.27;;
28587;SDS011;15787;49.662;10.162;2023-05-07T14:30:52;3.90;;;1.73;;
28587;SDS011;15787;49.662;10.162;2023-05-07T14:33:24;3.50;;;1.42;;
28587;SDS011;15787;49.662;10.162;2023-05-07T14:35:57;5.07;;;1.58;;
28587;SDS011;15787;49.662;10.162;2023-05-07T14:38:32;3.05;;;1.40;;
28587;SDS011;15787;49.662;10.162;2023-05-07T14:41:04;2.22;;;1.50;;
28587;SDS011;15787;49.662;10.162;2023-05-07T14:43:37;2.38;;;1.63;;
28587;SDS011;15787;49.662;10.162;2023-05-07T14:46:10;3.00;;;1.60;;
28587;SDS011;15787;49.662;10.162;2023-05-07T14:51:17;2.15;;;1.40;;
28587;SDS011;15787;49.662;10.162;2023-05-07T14:53:51;3.15;;;1.50;;
28587;SDS011;15787;49.662;10.162;2023-05-07T14:56:24;3.95;;;1.42;;
28587;SDS011;15787;49.662;10.162;2023-05-07T14:58:57;3.17;;;1.92;;
28587;SDS011;15787;49.662;10.162;2023-05-07T15:01:30;3.13;;;1.48;;
28587;SDS011;15787;49.662;10.162;2023-05-07T15:04:03;5.68;;;1.60;;
28587;SDS011;15787;49.662;10.162;2023-05-07T15:06:37;3.03;;;1.38;;
28587;SDS011;15787;49.662;10.162;2023-05-07T15:09:11;3.55;;;1.50;;
28587;SDS011;15787;49.662;10.162;2023-05-07T15:11:44;2.22;;;1.40;;
28587;SDS011;15787;49.662;10.162;2023-05-07T15:14:18;3.80;;;1.40;;
28587;SDS011;15787;49.662;10.162;2023-05-07T15:16:53;2.05;;;1.33;;
28587;SDS011;15787;49.662;10.162;2023-05-07T15:19:25;2.75;;;1.60;;
28587;SDS011;15787;49.662;10.162;2023-05-07T15:22:00;1.75;;;1.38;;
28587;SDS011;15787;49.662;10.162;2023-05-07T15:24:35;2.03;;;1.25;;
28587;SDS011;15787;49.662;10.162;2023-05-07T15:27:08;2.97;;;1.52;;
28587;SDS011;15787;49.662;10.162;2023-05-07T15:29:41;7.50;;;1.50;;
28587;SDS011;15787;49.662;10.162;2023-05-07T15:32:14;2.60;;;1.73;;
28587;SDS011;15787;49.662;10.162;2023-05-07T15:34:47;2.58;;;1.58;;
28587;SDS011;15787;49.662;10.162;2023-05-07T15:37:20;2.05;;;1.60;;